createdAt,value
2022-11-05T00:02:24.496Z,88.65
2022-11-05T00:05:09.813Z,88.34
2022-11-05T00:07:58.519Z,89.17
2022-11-05T00:10:29.879Z,88.59
2022-11-05T00:13:17.282Z,89.61
2022-11-05T00:16:02.567Z,89.72
2022-11-05T00:18:30.404Z,89.21
2022-11-05T00:20:58.256Z,89.17
2022-11-05T00:23:43.618Z,89.34
2022-11-05T00:26:13.350Z,89.87
2022-11-05T00:28:43.742Z,89.52
2022-11-05T00:31:14.821Z,89.87
2022-11-05T00:33:44.273Z,89.69
2022-11-05T00:36:12.686Z,90.23
2022-11-05T00:38:40.348Z,90.15
2022-11-05T00:41:07.957Z,90.10
2022-11-05T00:43:54.475Z,89.42
2022-11-05T00:46:23.290Z,89.96
2022-11-05T00:49:08.284Z,89.81
2022-11-05T00:51:35.968Z,89.59
2022-11-05T00:54:03.587Z,89.68
2022-11-05T00:56:31.192Z,89.85
2022-11-05T00:59:00.197Z,90.20
2022-11-05T01:01:27.921Z,90.17
2022-11-05T01:03:55.633Z,90.45
2022-11-05T01:06:23.314Z,89.90
2022-11-05T01:08:50.976Z,90.32
2022-11-05T01:11:33.960Z,90.16
2022-11-05T01:14:04.082Z,90.03
2022-11-05T01:16:31.769Z,89.88
2022-11-05T01:18:59.567Z,90.31
2022-11-05T01:21:27.203Z,90.49
2022-11-05T01:23:55.059Z,90.24
2022-11-05T01:26:22.794Z,90.85
2022-11-05T01:28:53.663Z,90.52
2022-11-05T01:31:23.625Z,90.62
2022-11-05T01:33:51.785Z,90.52
2022-11-05T01:36:19.606Z,90.78
2022-11-05T01:38:47.276Z,90.27
2022-11-05T01:41:14.904Z,90.48
2022-11-05T01:43:49.369Z,90.68
2022-11-05T01:46:20.725Z,90.74
2022-11-05T01:48:51.628Z,90.71
2022-11-05T01:51:21.676Z,90.82
2022-11-05T01:53:53.460Z,90.86
2022-11-05T01:56:26.608Z,90.96
2022-11-05T01:58:58.645Z,90.42
2022-11-05T02:01:26.353Z,90.32
2022-11-05T02:03:59.179Z,90.36
2022-11-05T02:06:29.951Z,90.98
2022-11-05T02:09:01.566Z,91.12
2022-11-05T02:11:30.033Z,90.65
2022-11-05T02:13:57.777Z,91.07
2022-11-05T02:16:38.599Z,90.78
2022-11-05T02:19:23.239Z,90.75
2022-11-05T02:22:16.753Z,91.00
2022-11-05T02:25:01.228Z,90.91
2022-11-05T02:28:08.051Z,90.96
2022-11-05T02:30:49.794Z,90.87
2022-11-05T02:33:24.742Z,91.67
2022-11-05T02:36:09.572Z,91.24
2022-11-05T02:38:42.404Z,90.83
2022-11-05T02:41:19.433Z,91.25
2022-11-05T02:43:58.296Z,91.07
2022-11-05T02:46:35.338Z,91.13
2022-11-05T02:49:14.411Z,91.01
2022-11-05T02:51:49.167Z,91.11
2022-11-05T02:54:21.514Z,91.01
2022-11-05T02:56:52.816Z,91.01
2022-11-05T02:59:20.577Z,91.29
2022-11-05T03:01:51.498Z,90.91
2022-11-05T03:04:22.123Z,91.12
2022-11-05T03:07:05.558Z,90.71
2022-11-05T03:10:07.711Z,91.06
2022-11-05T03:12:45.836Z,91.37
2022-11-05T03:15:23.441Z,90.87
2022-11-05T03:18:03.051Z,90.88
2022-11-05T03:20:36.908Z,91.06
2022-11-05T03:23:12.685Z,90.97
2022-11-05T03:25:46.920Z,91.05
2022-11-05T03:28:15.975Z,91.45
2022-11-05T03:30:45.755Z,91.06
2022-11-05T03:33:21.847Z,91.35
2022-11-05T03:35:55.049Z,91.01
2022-11-05T03:38:26.117Z,91.51
2022-11-05T03:40:58.524Z,90.92
2022-11-05T03:43:31.164Z,91.02
2022-11-05T03:46:03.454Z,91.22
2022-11-05T03:48:35.586Z,91.28
2022-11-05T03:51:09.653Z,91.12
2022-11-05T03:53:43.767Z,91.70
2022-11-05T03:56:18.394Z,91.55
2022-11-05T03:58:48.593Z,91.18
2022-11-05T04:01:16.879Z,91.22
2022-11-05T04:03:45.952Z,91.41
2022-11-05T04:06:31.168Z,91.26
2022-11-05T04:09:16.641Z,91.21
2022-11-05T04:12:01.915Z,91.49
2022-11-05T04:14:29.580Z,91.51
2022-11-05T04:17:09.667Z,91.59
2022-11-05T04:19:57.377Z,91.15
2022-11-05T04:22:43.651Z,91.33
2022-11-05T04:25:11.688Z,91.55
2022-11-05T04:27:39.545Z,91.13
2022-11-05T04:30:19.458Z,91.76
2022-11-05T04:33:00.037Z,91.13
2022-11-05T04:35:30.386Z,91.16
2022-11-05T04:37:58.067Z,90.97
2022-11-05T04:40:26.075Z,90.87
2022-11-05T04:42:55.239Z,90.87
2022-11-05T04:45:23.393Z,90.79
2022-11-05T04:47:51.076Z,90.92
2022-11-05T04:50:18.890Z,90.78
2022-11-05T04:52:47.911Z,90.92
2022-11-05T04:55:15.881Z,90.97
2022-11-05T04:57:43.543Z,90.97
2022-11-05T05:00:12.040Z,91.07
2022-11-05T05:02:39.680Z,90.86
2022-11-05T05:05:07.556Z,90.80
2022-11-05T05:07:35.700Z,90.71
2022-11-05T05:10:06.382Z,90.37
2022-11-05T05:12:34.425Z,90.62
2022-11-05T05:15:02.063Z,90.57
2022-11-05T05:17:29.740Z,90.15
2022-11-05T05:20:14.944Z,90.44
2022-11-05T05:22:42.701Z,90.38
2022-11-05T05:25:11.675Z,90.57
2022-11-05T05:27:39.311Z,90.44
2022-11-05T05:30:08.276Z,90.61
2022-11-05T05:32:35.905Z,90.36
2022-11-05T05:35:03.523Z,90.26
2022-11-05T05:37:31.195Z,90.67
2022-11-05T05:39:58.816Z,90.75
2022-11-05T05:42:27.802Z,90.59
2022-11-05T05:44:55.427Z,90.91
2022-11-05T05:47:23.014Z,90.98
2022-11-05T05:49:50.643Z,90.96
2022-11-05T05:52:18.277Z,91.01
2022-11-05T05:54:46.186Z,91.25
2022-11-05T05:57:13.843Z,90.92
2022-11-05T05:59:42.832Z,91.17
2022-11-05T06:02:11.860Z,91.19
2022-11-05T06:04:39.567Z,90.74
2022-11-05T06:07:08.451Z,90.85
2022-11-05T06:09:36.090Z,90.93
2022-11-05T06:12:03.729Z,90.89
2022-11-05T06:14:31.362Z,90.75
2022-11-05T06:17:00.367Z,91.00
2022-11-05T06:19:29.012Z,91.03
2022-11-05T06:21:56.654Z,91.19
2022-11-05T06:24:24.273Z,91.04
2022-11-05T06:26:51.879Z,91.01
2022-11-05T06:29:19.544Z,91.31
2022-11-05T06:31:47.227Z,91.02
2022-11-05T06:34:16.252Z,91.09
2022-11-05T06:36:43.936Z,91.12
2022-11-05T06:39:12.199Z,91.40
2022-11-05T06:42:04.069Z,92.32
2022-11-05T06:44:27.225Z,91.78
2022-11-05T06:46:54.832Z,91.08
2022-11-05T06:49:24.636Z,91.16
2022-11-05T06:51:52.336Z,91.26
2022-11-05T06:54:20.016Z,91.13
2022-11-05T06:56:47.665Z,90.69
2022-11-05T06:59:15.569Z,91.17
2022-11-05T07:01:43.299Z,91.26
2022-11-05T07:04:13.044Z,91.06
2022-11-05T07:06:42.329Z,91.35
2022-11-05T07:09:09.966Z,91.12
2022-11-05T07:11:37.577Z,91.54
2022-11-05T07:14:05.208Z,91.39
2022-11-05T07:16:32.876Z,91.23
2022-11-05T07:19:00.502Z,91.36
2022-11-05T07:21:28.977Z,91.38
2022-11-05T07:23:57.982Z,91.14
2022-11-05T07:26:31.896Z,90.94
2022-11-05T07:29:02.017Z,90.81
2022-11-05T07:31:29.639Z,91.06
2022-11-05T07:33:59.079Z,90.80
2022-11-05T07:36:26.778Z,91.08
2022-11-05T07:38:59.945Z,90.53
2022-11-05T07:41:29.783Z,91.25
2022-11-05T07:43:57.376Z,90.65
2022-11-05T07:46:25.182Z,90.63
2022-11-05T07:48:52.800Z,90.98
2022-11-05T07:51:20.436Z,90.63
2022-11-05T07:53:48.409Z,90.78
2022-11-05T07:56:16.107Z,90.78
2022-11-05T07:58:45.102Z,91.13
2022-11-05T08:01:12.858Z,90.28
2022-11-05T08:03:40.650Z,90.50
2022-11-05T08:06:08.512Z,90.56
2022-11-05T08:08:36.417Z,89.58
2022-11-05T08:11:05.132Z,89.56
2022-11-05T08:13:32.787Z,89.85
2022-11-05T08:16:02.499Z,88.29
2022-11-05T08:18:32.380Z,88.27
2022-11-05T08:21:01.231Z,87.90
2022-11-05T08:23:30.703Z,87.70
2022-11-05T08:25:59.216Z,87.49
2022-11-05T08:28:27.520Z,87.45
2022-11-05T08:30:57.582Z,87.76
2022-11-05T08:33:27.467Z,87.91
2022-11-05T08:35:55.092Z,88.36
2022-11-05T08:38:22.730Z,88.21
2022-11-05T08:40:56.589Z,87.67
2022-11-05T08:43:24.935Z,87.74
2022-11-05T08:45:52.593Z,87.56
2022-11-05T08:48:20.535Z,87.63
2022-11-05T08:50:50.435Z,86.55
2022-11-05T08:53:18.142Z,86.22
2022-11-05T08:55:47.710Z,86.34
2022-11-05T08:58:17.099Z,86.48
2022-11-05T09:00:47.025Z,86.12
2022-11-05T09:03:15.626Z,85.37
2022-11-05T09:05:44.089Z,85.05
2022-11-05T09:08:14.664Z,83.95
2022-11-05T09:10:42.813Z,84.00
2022-11-05T09:13:16.861Z,83.90
2022-11-05T09:15:47.061Z,83.77
2022-11-05T09:18:15.496Z,84.10
2022-11-05T09:20:43.560Z,83.55
2022-11-05T09:23:11.976Z,76.25
2022-11-05T09:25:41.452Z,81.90
2022-11-05T09:28:15.958Z,82.25
2022-11-05T09:30:45.840Z,81.85
2022-11-05T09:33:14.277Z,81.15
2022-11-05T09:35:43.334Z,80.42
2022-11-05T09:38:11.623Z,79.53
2022-11-05T09:40:45.842Z,77.67
2022-11-05T09:43:19.797Z,78.31
2022-11-05T09:45:51.181Z,78.35
2022-11-05T09:48:22.689Z,78.44
2022-11-05T09:50:52.687Z,79.08
2022-11-05T09:53:23.741Z,78.07
2022-11-05T09:55:55.910Z,78.41
2022-11-05T09:58:29.144Z,78.64
2022-11-05T10:00:58.166Z,79.29
2022-11-05T10:03:27.885Z,78.93
2022-11-05T10:05:59.969Z,79.18
2022-11-05T10:08:31.672Z,78.60
2022-11-05T10:11:06.549Z,78.66
2022-11-05T10:13:38.797Z,77.97
2022-11-05T10:16:26.823Z,75.98
2022-11-05T10:19:06.137Z,76.43
2022-11-05T10:22:04.091Z,76.73
2022-11-05T10:24:22.472Z,76.02
2022-11-05T10:26:53.981Z,75.60
2022-11-05T10:29:26.787Z,75.48
2022-11-05T10:31:55.940Z,75.64
2022-11-05T10:34:26.936Z,75.65
2022-11-05T10:36:54.609Z,76.17
2022-11-05T10:39:23.411Z,76.33
2022-11-05T10:42:11.155Z,74.15
2022-11-05T10:44:45.178Z,76.75
2022-11-05T10:47:34.360Z,75.61
2022-11-05T10:50:04.524Z,76.77
2022-11-05T10:52:35.096Z,76.63
2022-11-05T10:55:07.547Z,76.59
2022-11-05T10:57:38.572Z,76.91
2022-11-05T11:00:28.508Z,73.42
2022-11-05T11:02:59.402Z,77.01
2022-11-05T11:05:30.088Z,77.23
2022-11-05T11:08:04.790Z,76.55
2022-11-05T11:10:38.523Z,77.04
2022-11-05T11:13:15.912Z,77.14
2022-11-05T11:15:43.589Z,76.62
2022-11-05T11:18:30.892Z,74.78
2022-11-05T11:21:08.543Z,72.08
2022-11-05T11:23:40.732Z,73.91
2022-11-05T11:26:09.812Z,76.29
2022-11-05T11:28:44.411Z,76.04
2022-11-05T11:31:15.118Z,76.02
2022-11-05T11:33:46.585Z,74.18
2022-11-05T11:36:17.952Z,75.27
2022-11-05T11:38:46.313Z,75.22
2022-11-05T11:41:25.938Z,69.88
2022-11-05T11:44:00.797Z,74.46
2022-11-05T11:46:33.427Z,74.79
2022-11-05T11:49:01.629Z,75.41
2022-11-05T11:51:36.711Z,75.16
2022-11-05T11:54:05.512Z,75.82
2022-11-05T11:56:44.516Z,73.58
2022-11-05T11:59:35.356Z,74.68
2022-11-05T12:02:37.745Z,74.06
2022-11-05T12:05:18.855Z,75.25
2022-11-05T12:07:52.951Z,76.16
2022-11-05T12:10:29.584Z,73.65
2022-11-05T12:13:15.639Z,74.42
2022-11-05T12:15:50.379Z,75.49
2022-11-05T12:18:21.307Z,68.39
2022-11-05T12:21:06.604Z,73.22
2022-11-05T12:23:57.331Z,71.98
2022-11-05T12:26:33.994Z,73.29
2022-11-05T12:29:24.749Z,72.39
2022-11-05T12:32:09.538Z,71.08
2022-11-05T12:34:49.793Z,68.32
2022-11-05T12:37:31.049Z,66.81
2022-11-05T12:40:15.689Z,59.76
2022-11-05T12:42:55.994Z,67.48
2022-11-05T12:45:35.204Z,65.19
2022-11-05T12:48:30.270Z,69.22
2022-11-05T12:51:10.083Z,69.17
2022-11-05T12:53:54.346Z,68.40
2022-11-05T12:56:31.854Z,69.69
2022-11-05T12:59:07.005Z,71.13
2022-11-05T13:01:38.176Z,72.17
2022-11-05T13:04:15.063Z,70.97
2022-11-05T13:06:47.795Z,71.75
2022-11-05T13:09:19.808Z,72.48
2022-11-05T13:11:52.793Z,72.43
2022-11-05T13:14:23.392Z,72.46
2022-11-05T13:16:54.881Z,72.47
2022-11-05T13:19:27.485Z,72.17
2022-11-05T13:21:59.028Z,73.09
2022-11-05T13:24:31.518Z,73.18
2022-11-05T13:27:04.426Z,72.71
2022-11-05T13:29:37.000Z,69.27
2022-11-05T13:32:15.716Z,73.00
2022-11-05T13:34:44.790Z,72.79
2022-11-05T13:37:46.999Z,72.59
2022-11-05T13:40:17.678Z,72.81
2022-11-05T13:43:03.105Z,71.61
2022-11-05T13:46:09.103Z,70.85
2022-11-05T13:49:01.552Z,68.32
2022-11-05T13:51:49.991Z,68.29
2022-11-05T13:54:51.336Z,67.66
2022-11-05T13:57:40.773Z,67.61
2022-11-05T14:00:16.952Z,71.41
2022-11-05T14:02:49.114Z,72.29
2022-11-05T14:05:30.045Z,71.68
2022-11-05T14:08:01.763Z,72.40
2022-11-05T14:10:37.350Z,71.18
2022-11-05T14:13:19.235Z,71.45
2022-11-05T14:16:02.075Z,71.47
2022-11-05T14:18:39.656Z,71.58
2022-11-05T14:21:28.215Z,72.98
2022-11-05T14:23:58.458Z,73.19
2022-11-05T14:26:27.202Z,73.32
2022-11-05T14:29:24.044Z,70.10
2022-11-05T14:32:11.032Z,73.44
2022-11-05T14:34:48.195Z,74.18
2022-11-05T14:37:27.036Z,72.64
2022-11-05T14:39:57.315Z,75.20
2022-11-05T14:42:28.819Z,75.27
2022-11-05T14:45:04.434Z,74.93
2022-11-05T14:47:34.519Z,75.29
2022-11-05T14:50:09.447Z,75.85
2022-11-05T14:52:38.993Z,75.41
2022-11-05T14:55:24.164Z,75.11
2022-11-05T14:58:24.852Z,74.81
2022-11-05T15:00:53.506Z,75.60
2022-11-05T15:03:47.166Z,74.19
2022-11-05T15:06:35.663Z,75.87
2022-11-05T15:09:14.361Z,71.87
2022-11-05T15:12:04.820Z,75.46
2022-11-05T15:14:35.044Z,76.13
2022-11-05T15:17:13.253Z,76.18
2022-11-05T15:19:43.610Z,76.79
2022-11-05T15:22:24.011Z,76.15
2022-11-05T15:24:51.934Z,76.43
2022-11-05T15:27:34.710Z,76.12
2022-11-05T15:30:06.265Z,76.76
2022-11-05T15:32:38.346Z,76.51
2022-11-05T15:35:19.644Z,75.61
2022-11-05T15:37:53.393Z,76.79
2022-11-05T15:40:26.812Z,76.89
2022-11-05T15:43:17.258Z,75.91
2022-11-05T15:45:44.994Z,77.20
2022-11-05T15:48:16.910Z,77.34
2022-11-05T15:50:44.669Z,77.46
2022-11-05T15:53:44.013Z,76.97
2022-11-05T15:56:12.714Z,77.57
2022-11-05T15:58:48.199Z,77.03
2022-11-05T16:01:24.733Z,77.55
2022-11-05T16:03:53.894Z,77.87
2022-11-05T16:06:22.120Z,78.08
2022-11-05T16:08:51.226Z,78.10
2022-11-05T16:11:23.254Z,77.79
2022-11-05T16:13:53.107Z,78.35
2022-11-05T16:16:31.312Z,78.25
2022-11-05T16:18:59.113Z,78.57
2022-11-05T16:21:26.728Z,78.41
2022-11-05T16:23:56.407Z,78.48
2022-11-05T16:27:00.678Z,78.51
2022-11-05T16:29:23.662Z,78.81
2022-11-05T16:31:53.716Z,78.32
2022-11-05T16:34:27.936Z,78.65
2022-11-05T16:36:56.913Z,78.67
2022-11-05T16:39:25.262Z,78.76
2022-11-05T16:41:53.280Z,79.04
2022-11-05T16:44:22.293Z,79.09
2022-11-05T16:46:51.075Z,79.03
2022-11-05T16:49:18.996Z,79.21
2022-11-05T16:51:46.608Z,79.44
2022-11-05T16:54:15.468Z,79.51
2022-11-05T16:56:43.828Z,79.03
2022-11-05T16:59:13.541Z,79.70
2022-11-05T17:01:44.274Z,79.80
2022-11-05T17:04:14.172Z,79.69
2022-11-05T17:06:43.664Z,79.46
2022-11-05T17:09:11.321Z,79.59
2022-11-05T17:11:38.997Z,79.71
2022-11-05T17:14:07.025Z,80.04
2022-11-05T17:16:34.657Z,79.97
2022-11-05T17:19:03.679Z,80.02
2022-11-05T17:21:31.372Z,80.12
2022-11-05T17:23:59.295Z,79.78
2022-11-05T17:26:26.908Z,79.81
2022-11-05T17:28:54.564Z,80.05
2022-11-05T17:31:22.224Z,80.07
2022-11-05T17:33:49.900Z,79.82
2022-11-05T17:36:18.939Z,80.14
2022-11-05T17:38:46.571Z,80.34
2022-11-05T17:41:15.158Z,79.90
2022-11-05T17:43:43.308Z,80.04
2022-11-05T17:46:11.867Z,80.10
2022-11-05T17:48:39.960Z,80.18
2022-11-05T17:51:09.504Z,80.23
2022-11-05T17:53:39.040Z,80.33
2022-11-05T17:56:10.212Z,79.99
2022-11-05T17:58:38.407Z,80.45
2022-11-05T18:01:06.808Z,80.54
2022-11-05T18:03:34.512Z,80.45
2022-11-05T18:06:03.175Z,80.59
2022-11-05T18:08:30.992Z,80.50
2022-11-05T18:11:00.371Z,80.40
2022-11-05T18:13:27.989Z,80.77
2022-11-05T18:15:55.795Z,80.82
2022-11-05T18:18:23.435Z,81.10
2022-11-05T18:20:51.164Z,81.58
2022-11-05T18:23:18.848Z,81.45
2022-11-05T18:25:46.496Z,81.80
2022-11-05T18:28:15.848Z,82.33
2022-11-05T18:30:43.561Z,82.32
2022-11-05T18:33:11.596Z,82.39
2022-11-05T18:35:43.258Z,82.56
2022-11-05T18:38:11.148Z,82.54
2022-11-05T18:40:38.946Z,82.29
2022-11-05T18:43:06.608Z,82.44
2022-11-05T18:45:35.651Z,82.18
2022-11-05T18:48:03.478Z,82.19
2022-11-05T18:50:31.695Z,81.96
2022-11-05T18:52:59.337Z,82.13
2022-11-05T18:55:27.085Z,81.96
2022-11-05T18:57:54.745Z,82.11
2022-11-05T19:00:22.527Z,81.82
2022-11-05T19:02:51.619Z,81.83
2022-11-05T19:05:34.723Z,81.51
2022-11-05T19:08:02.384Z,81.56
2022-11-05T19:10:30.074Z,81.71
2022-11-05T19:12:57.773Z,81.53
2022-11-05T19:15:25.411Z,82.05
2022-11-05T19:17:54.412Z,81.32
2022-11-05T19:20:22.083Z,81.40
2022-11-05T19:22:49.988Z,81.69
2022-11-05T19:25:17.728Z,81.53
2022-11-05T19:27:45.358Z,81.22
2022-11-05T19:30:13.372Z,81.51
2022-11-05T19:32:41.047Z,81.28
2022-11-05T19:35:10.428Z,81.58
2022-11-05T19:37:38.076Z,81.51
2022-11-05T19:40:06.743Z,81.73
2022-11-05T19:42:34.403Z,81.63
2022-11-05T19:45:22.903Z,81.40
2022-11-05T19:47:49.656Z,81.34
2022-11-05T19:50:18.875Z,81.58
2022-11-05T19:52:46.523Z,81.37
2022-11-05T19:55:14.167Z,81.45
2022-11-05T19:57:41.821Z,81.27
2022-11-05T20:00:10.730Z,81.22
2022-11-05T20:02:38.626Z,81.08
2022-11-05T20:05:06.844Z,81.05
2022-11-05T20:07:35.651Z,80.83
2022-11-05T20:10:03.321Z,81.05
2022-11-05T20:12:31.016Z,81.08
2022-11-05T20:14:58.660Z,81.31
2022-11-05T20:17:26.327Z,81.46
2022-11-05T20:19:54.161Z,81.35
2022-11-05T20:22:21.794Z,81.47
2022-11-05T20:24:50.861Z,81.63
2022-11-05T20:27:18.893Z,81.36
2022-11-05T20:29:46.538Z,81.59
2022-11-05T20:32:14.325Z,81.54
2022-11-05T20:34:42.151Z,81.47
2022-11-05T20:37:09.828Z,81.28
2022-11-05T20:39:38.317Z,81.28
2022-11-05T20:42:07.417Z,81.42
2022-11-05T20:44:35.116Z,81.43
2022-11-05T20:47:02.732Z,81.17
2022-11-05T20:49:30.428Z,81.26
2022-11-05T20:51:58.139Z,81.10
2022-11-05T20:54:25.940Z,81.28
2022-11-05T20:56:53.576Z,81.27
2022-11-05T20:59:22.800Z,81.28
2022-11-05T21:01:51.788Z,81.56
2022-11-05T21:04:20.893Z,81.61
2022-11-05T21:06:49.293Z,81.63
2022-11-05T21:09:16.995Z,81.94
2022-11-05T21:12:04.707Z,82.20
2022-11-05T21:14:33.780Z,81.98
2022-11-05T21:17:01.408Z,82.34
2022-11-05T21:19:29.462Z,82.35
2022-11-05T21:21:57.101Z,82.25
2022-11-05T21:24:24.758Z,82.31
2022-11-05T21:26:52.480Z,82.29
2022-11-05T21:29:20.715Z,82.26
2022-11-05T21:31:50.028Z,82.68
2022-11-05T21:34:18.922Z,82.40
2022-11-05T21:36:47.092Z,82.31
2022-11-05T21:39:14.858Z,82.55
2022-11-05T21:41:43.523Z,82.38
2022-11-05T21:44:11.585Z,82.56
2022-11-05T21:46:39.407Z,82.23
2022-11-05T21:49:09.356Z,82.21
2022-11-05T21:51:54.664Z,82.04
2022-11-05T21:54:39.890Z,82.17
2022-11-05T21:57:31.594Z,82.09
2022-11-05T22:00:00.529Z,82.40
2022-11-05T22:02:29.455Z,81.84
2022-11-05T22:04:59.984Z,82.11
2022-11-05T22:07:29.728Z,82.55
2022-11-05T22:09:57.719Z,82.25
2022-11-05T22:12:25.749Z,82.09
2022-11-05T22:14:53.439Z,81.93
2022-11-05T22:17:22.008Z,82.00
2022-11-05T22:19:49.888Z,81.91
2022-11-05T22:22:19.675Z,81.94
2022-11-05T22:24:47.396Z,82.17
2022-11-05T22:27:18.405Z,82.09
2022-11-05T22:29:46.374Z,82.30
2022-11-05T22:32:14.438Z,82.35
2022-11-05T22:34:42.096Z,82.27
2022-11-05T22:37:11.305Z,82.15
2022-11-05T22:39:40.514Z,82.07
2022-11-05T22:42:08.826Z,82.33
2022-11-05T22:44:37.281Z,82.26
2022-11-05T22:47:05.404Z,82.07
2022-11-05T22:49:32.980Z,82.50
2022-11-05T22:52:00.782Z,82.25
2022-11-05T22:54:28.534Z,82.31
2022-11-05T22:56:57.682Z,82.26
2022-11-05T22:59:25.391Z,82.35
2022-11-05T23:01:53.197Z,82.24
2022-11-05T23:04:20.919Z,82.30
2022-11-05T23:07:05.953Z,82.30
2022-11-05T23:09:53.203Z,82.43
2022-11-05T23:12:26.057Z,82.42
2022-11-05T23:14:54.592Z,82.50
2022-11-05T23:17:39.832Z,82.46
2022-11-05T23:20:29.793Z,82.44
2022-11-05T23:23:15.155Z,82.27
2022-11-05T23:25:43.338Z,82.67
2022-11-05T23:28:12.911Z,82.81
2022-11-05T23:31:05.127Z,82.61
2022-11-05T23:33:34.346Z,83.02
2022-11-05T23:36:19.403Z,82.77
2022-11-05T23:38:47.086Z,82.74
2022-11-05T23:41:32.427Z,82.94
2022-11-05T23:44:18.934Z,83.20
2022-11-05T23:47:04.352Z,83.05
2022-11-05T23:49:32.052Z,83.25
2022-11-05T23:51:59.679Z,83.39
2022-11-05T23:54:27.413Z,83.44
2022-11-05T23:56:55.048Z,83.45
2022-11-05T23:59:24.180Z,83.55
